Hlavní strana
METAR-TAF:

METAR-TAF

Letiště :

Mora–Siljan

Mora, Švédsko

zeměpisná šířka: 60-57-31N, zeměpisná délka: 14-30-40E, výška: 193 m

Aktuální stav počasí

Zpráva byla vytvořena před 39 minutami, v 20:50 UTC
vítr z různých směrů 1 kt
Teplota 1°C
Vlhkost vzduchu 100%
Tlak 1000 hPa
Viditelnost 10 km a více

METAR: ESKM 122050Z AUTO VRB01KT 9999 OVC011/// 01/01 Q1000

Čas: 22:29 (21:29 UTC)


TAF: chybějící

Stav a předpovědi počasí z více než 4 000 letišť (zprávy METAR a TAF).

Červené a žluté tečky na mapě představují dostupné meteorologické stanice.

Když kurzor umístíte na tečku, zobrazí se název stanice.

Pak kliknutím zobrazíte stav a předpověď počasí.

Chcete-li změnit mapu, kliknutím na zelené tlačítko se znaménkem +mapu přiblížíte, kliknutím na zelené tlačítko se znaménkem – mapu oddálíte a kliknutím na zelené šipky přejdete na sousední mapy.


METAR-TAF: